Time;durP1;ratioP1;P1;durP2;ratioP2;P2;SDS_P1;SDS_P2;PMS_P1;PMS_P2;Temp;Humidity;BMP_temperature;BMP_pressure;BME280_temperature;BME280_humidity;BME280_pressure;Samples;Min_cycle;Max_cycle;Signal;HPM_P1;HPM_P2
2023/10/21 00:02:28;;;;;;;104.85;32.75;;;;;;;8.56;100.00;98405.97;10416653;28;20048;-70
2023/10/21 00:07:29;;;;;;;83.18;30.08;;;;;;;8.56;100.00;98416.94;10415754;28;20052;-70
2023/10/21 00:12:29;;;;;;;112.63;34.53;;;;;;;8.57;100.00;98407.59;10414216;28;20041;-69
2023/10/21 00:17:30;;;;;;;115.85;34.65;;;;;;;8.60;100.00;98417.97;10414787;28;20045;-71
2023/10/21 00:22:30;;;;;;;102.70;33.08;;;;;;;8.28;100.00;98375.69;10413118;28;20064;-72
2023/10/21 00:27:31;;;;;;;133.20;35.83;;;;;;;8.67;100.00;98440.31;10415858;28;20041;-72
2023/10/21 00:32:31;;;;;;;130.23;34.35;;;;;;;8.72;100.00;98438.59;10415067;28;20037;-71
2023/10/21 00:37:31;;;;;;;131.27;37.38;;;;;;;8.71;100.00;98437.00;10414337;28;20045;-71
2023/10/21 00:42:32;;;;;;;148.75;37.70;;;;;;;8.67;100.00;98443.06;10414890;28;20049;-71
2023/10/21 00:47:33;;;;;;;122.18;35.33;;;;;;;8.62;100.00;98445.91;10413217;28;20053;-69
2023/10/21 00:52:37;;;;;;;143.77;37.33;;;;;;;8.59;100.00;98445.69;10427173;28;20145;-71
2023/10/21 00:57:37;;;;;;;164.73;38.33;;;;;;;8.63;100.00;98463.97;10413046;28;20041;-71
2023/10/21 01:02:39;;;;;;;165.63;41.13;;;;;;;8.56;100.00;98447.13;10413251;28;20280;-71
2023/10/21 01:07:42;;;;;;;137.00;40.13;;;;;;;8.62;100.00;98462.38;10412627;28;20047;-71
2023/10/21 01:12:42;;;;;;;187.68;41.58;;;;;;;8.64;100.00;98467.53;10396878;28;20041;-71
2023/10/21 01:17:52;;;;;;;248.57;45.20;;;;;;;8.67;100.00;98475.97;10414667;28;20045;-71
2023/10/21 01:22:55;;;;;;;227.95;44.92;;;;;;;8.69;100.00;98495.69;10414921;28;20037;-72
2023/10/21 01:27:55;;;;;;;202.90;43.83;;;;;;;8.71;100.00;98497.34;10415116;28;20127;-71
2023/10/21 01:32:56;;;;;;;307.70;50.38;;;;;;;8.76;100.00;98505.47;10411137;28;20084;-72
2023/10/21 01:37:56;;;;;;;277.15;47.03;;;;;;;8.79;100.00;98496.66;10414294;28;20037;-71
2023/10/21 01:42:57;;;;;;;330.70;50.80;;;;;;;8.67;100.00;98484.22;10415121;28;20080;-72
2023/10/21 01:47:57;;;;;;;284.08;47.53;;;;;;;8.86;100.00;98513.53;10416689;28;20045;-71
2023/10/21 01:52:58;;;;;;;281.50;44.38;;;;;;;8.88;100.00;98519.53;10418828;28;20030;-72
2023/10/21 01:57:58;;;;;;;330.27;49.17;;;;;;;8.92;100.00;98520.56;10386700;28;20070;-72
2023/10/21 02:02:59;;;;;;;324.65;51.38;;;;;;;8.09;100.00;98405.88;10436876;28;20083;-71
2023/10/21 02:07:59;;;;;;;286.42;42.63;;;;;;;8.96;100.00;98532.56;10421133;28;20040;-71
2023/10/21 02:13:00;;;;;;;388.92;52.50;;;;;;;8.98;100.00;98541.31;10421232;28;20041;-70
2023/10/21 02:18:00;;;;;;;357.83;50.78;;;;;;;8.99;100.00;98542.94;10418911;28;20038;-71
2023/10/21 02:23:01;;;;;;;350.00;49.05;;;;;;;9.04;100.00;98556.56;10420482;28;20087;-72
2023/10/21 02:28:02;;;;;;;354.73;49.97;;;;;;;8.99;100.00;98556.66;10420279;28;20037;-72
2023/10/21 02:33:03;;;;;;;324.15;49.17;;;;;;;9.09;100.00;98563.88;10418547;28;20103;-71
2023/10/21 02:38:04;;;;;;;296.50;46.85;;;;;;;9.11;100.00;98571.84;10415952;28;20065;-73
2023/10/21 02:43:05;;;;;;;314.38;48.38;;;;;;;9.14;100.00;98582.22;10417962;28;20038;-71
2023/10/21 02:48:06;;;;;;;332.13;49.55;;;;;;;9.16;100.00;98589.03;10417770;28;20037;-72
2023/10/21 02:53:06;;;;;;;340.65;48.60;;;;;;;9.20;100.00;98600.22;10417658;28;20118;-72
2023/10/21 02:58:07;;;;;;;230.63;41.67;;;;;;;9.23;100.00;98596.88;10416448;28;20052;-72
2023/10/21 03:03:08;;;;;;;290.52;44.40;;;;;;;9.24;100.00;98603.97;10412193;28;20432;-72
2023/10/21 03:08:09;;;;;;;358.60;49.92;;;;;;;9.26;100.00;98601.75;10417188;28;20033;-72
2023/10/21 03:13:09;;;;;;;294.92;45.38;;;;;;;9.28;100.00;98610.50;10417457;28;20048;-73
2023/10/21 03:18:10;;;;;;;323.45;48.95;;;;;;;9.29;100.00;98617.63;10415170;28;20103;-67
2023/10/21 03:23:11;;;;;;;352.95;49.30;;;;;;;9.29;100.00;98623.13;10418286;28;22310;-72
2023/10/21 03:28:11;;;;;;;282.10;43.75;;;;;;;9.28;100.00;98632.47;10418287;28;20049;-72
2023/10/21 03:33:11;;;;;;;333.70;47.55;;;;;;;9.27;100.00;98631.66;10417536;28;20037;-71
2023/10/21 03:38:12;;;;;;;290.75;43.30;;;;;;;9.26;100.00;98641.03;10418411;28;20044;-72
2023/10/21 03:43:12;;;;;;;317.17;47.00;;;;;;;9.25;100.00;98635.84;10416964;28;20033;-72
2023/10/21 03:48:13;;;;;;;284.90;43.92;;;;;;;9.25;100.00;98638.56;10416910;28;20052;-72
2023/10/21 03:53:14;;;;;;;217.15;39.88;;;;;;;9.22;100.00;98650.97;10416574;28;20084;-72
2023/10/21 03:58:15;;;;;;;204.30;38.78;;;;;;;9.13;100.00;98646.47;10415289;28;20049;-72
2023/10/21 04:03:15;;;;;;;224.20;41.88;;;;;;;9.14;100.00;98651.66;10415075;28;20056;-72
2023/10/21 04:08:16;;;;;;;207.77;38.70;;;;;;;9.18;100.00;98666.41;10398832;28;20072;-71
2023/10/21 04:13:16;;;;;;;238.70;39.47;;;;;;;9.18;100.00;98671.91;10417371;28;20036;-72
2023/10/21 04:18:20;;;;;;;151.15;35.88;;;;;;;9.09;100.00;98673.69;10416758;28;20049;-72
2023/10/21 04:23:20;;;;;;;156.07;35.58;;;;;;;9.12;100.00;98681.34;10415485;28;20087;-72
2023/10/21 04:28:21;;;;;;;135.60;34.20;;;;;;;9.06;100.00;98691.56;10415862;28;20120;-72
2023/10/21 04:33:21;;;;;;;153.68;35.13;;;;;;;9.00;100.00;98709.22;10431337;28;20056;-72
2023/10/21 04:38:22;;;;;;;149.98;34.65;;;;;;;8.92;100.00;98711.84;10415023;28;20038;-71
2023/10/21 04:43:22;;;;;;;142.95;30.77;;;;;;;8.85;100.00;98717.69;10416391;28;20054;-72
2023/10/21 04:48:23;;;;;;;109.80;31.38;;;;;;;8.74;100.00;98716.19;10414925;28;20042;-71
2023/10/21 04:53:23;;;;;;;115.35;31.73;;;;;;;8.64;100.00;98723.47;10414669;28;20052;-71
2023/10/21 04:58:24;;;;;;;135.48;33.15;;;;;;;8.57;100.00;98725.72;10395434;28;20044;-71
2023/10/21 05:03:24;;;;;;;130.07;34.33;;;;;;;8.49;100.00;98734.59;10412999;28;20041;-71
2023/10/21 05:08:25;;;;;;;175.98;36.65;;;;;;;8.42;100.00;98745.13;10416336;28;20050;-72
2023/10/21 05:13:25;;;;;;;131.88;34.15;;;;;;;8.34;100.00;98740.25;10415991;28;20045;-72
2023/10/21 05:18:26;;;;;;;171.90;37.17;;;;;;;8.33;100.00;98752.31;10414671;28;20627;-72
2023/10/21 05:23:26;;;;;;;139.77;34.83;;;;;;;8.32;100.00;98753.44;10420553;28;20097;-72
2023/10/21 05:28:27;;;;;;;186.93;39.08;;;;;;;8.33;100.00;98760.53;10422377;28;20041;-71
2023/10/21 05:33:27;;;;;;;123.07;35.35;;;;;;;8.38;100.00;98774.19;10423267;28;20057;-72
2023/10/21 05:38:28;;;;;;;142.07;36.50;;;;;;;8.40;100.00;98772.00;10423196;28;20042;-71
2023/10/21 05:43:28;;;;;;;142.00;38.72;;;;;;;8.42;100.00;98792.53;10422236;28;20131;-72
2023/10/21 05:48:29;;;;;;;169.02;36.60;;;;;;;8.42;100.00;98803.50;10420482;28;20041;-72
2023/10/21 05:53:29;;;;;;;148.50;35.97;;;;;;;8.43;100.00;98820.78;10419094;28;20136;-72
2023/10/21 05:58:30;;;;;;;124.00;34.45;;;;;;;8.45;100.00;98824.03;10422266;28;20038;-67
2023/10/21 06:03:31;;;;;;;121.50;33.75;;;;;;;8.48;100.00;98834.44;10422220;28;20041;-72
2023/10/21 06:08:31;;;;;;;135.32;33.90;;;;;;;8.43;100.00;98837.22;10420863;28;20128;-71
2023/10/21 06:13:32;;;;;;;116.97;33.42;;;;;;;8.50;100.00;98848.69;10420555;28;20076;-72
2023/10/21 06:18:32;;;;;;;140.82;33.78;;;;;;;8.54;100.00;98870.84;10419802;28;20031;-72
2023/10/21 06:23:33;;;;;;;135.35;34.90;;;;;;;8.55;100.00;98869.75;10420879;28;20045;-71
2023/10/21 06:28:34;;;;;;;105.72;31.17;;;;;;;8.58;100.00;98877.38;10420535;28;20037;-72
2023/10/21 06:33:35;;;;;;;113.05;31.63;;;;;;;8.60;100.00;98892.47;10420365;28;20056;-72
2023/10/21 06:38:36;;;;;;;109.50;30.95;;;;;;;8.63;100.00;98897.34;10420201;28;20062;-71
2023/10/21 06:43:37;;;;;;;133.80;31.95;;;;;;;8.67;100.00;98906.66;10418696;28;20084;-71
2023/10/21 06:48:38;;;;;;;125.18;32.22;;;;;;;8.73;100.00;98912.09;10416144;28;20048;-72
2023/10/21 06:53:38;;;;;;;111.13;31.55;;;;;;;8.75;100.00;98915.38;10417909;28;20046;-72
2023/10/21 06:58:44;;;;;;;105.68;30.83;;;;;;;8.81;100.00;98922.44;10417900;28;20041;-71
2023/10/21 07:03:44;;;;;;;104.78;29.55;;;;;;;8.88;100.00;98925.63;10418755;28;20072;-71
2023/10/21 07:08:45;;;;;;;115.75;29.98;;;;;;;8.96;100.00;98937.91;10419244;28;20045;-72
2023/10/21 07:13:47;;;;;;;101.35;29.73;;;;;;;9.01;100.00;98946.94;10410341;28;20037;-73
2023/10/21 07:18:48;;;;;;;73.40;27.30;;;;;;;9.11;100.00;98956.94;10417757;28;20064;-72
2023/10/21 07:23:48;;;;;;;94.05;28.20;;;;;;;9.20;100.00;98960.72;10417713;28;20108;-72
2023/10/21 07:28:48;;;;;;;105.68;27.45;;;;;;;9.28;100.00;98967.47;10416352;28;20041;-72
2023/10/21 07:33:52;;;;;;;93.97;27.85;;;;;;;9.42;100.00;98982.13;10418350;28;20060;-72
2023/10/21 07:38:53;;;;;;;93.22;27.30;;;;;;;9.54;100.00;99000.94;10417803;28;20034;-72
2023/10/21 07:43:53;;;;;;;84.32;27.02;;;;;;;9.36;100.00;98942.09;10410338;28;20097;-73
2023/10/21 07:48:54;;;;;;;108.28;28.40;;;;;;;9.71;100.00;98986.72;10415869;28;20048;-72
2023/10/21 07:53:55;;;;;;;97.28;27.13;;;;;;;9.89;100.00;99001.59;10416362;28;20141;-72
2023/10/21 07:58:55;;;;;;;87.00;27.33;;;;;;;9.96;100.00;99015.78;10421966;28;20076;-72
2023/10/21 08:03:56;;;;;;;61.22;24.13;;;;;;;10.12;100.00;99016.41;10414103;28;20099;-72
2023/10/21 08:08:56;;;;;;;78.60;26.90;;;;;;;10.25;100.00;99020.34;10414660;28;20056;-74
2023/10/21 08:13:57;;;;;;;68.22;24.50;;;;;;;10.40;100.00;99030.34;10411600;28;20482;-73
2023/10/21 08:18:58;;;;;;;80.20;26.92;;;;;;;10.43;100.00;99035.25;10413697;28;20079;-74
2023/10/21 08:24:00;;;;;;;77.65;24.30;;;;;;;10.48;100.00;99048.94;10414361;28;20045;-73
2023/10/21 08:29:01;;;;;;;81.28;25.52;;;;;;;10.57;100.00;99043.56;10413928;28;20045;-72
2023/10/21 08:34:01;;;;;;;62.60;22.95;;;;;;;10.71;100.00;99052.69;10415101;28;20052;-72
2023/10/21 08:39:02;;;;;;;59.10;23.20;;;;;;;10.87;100.00;99058.75;10413138;28;20064;-73
2023/10/21 08:44:02;;;;;;;54.72;22.77;;;;;;;11.07;100.00;99068.59;10413043;28;20056;-73
2023/10/21 08:49:03;;;;;;;66.85;23.23;;;;;;;11.30;100.00;99064.88;10405630;28;20065;-73
2023/10/21 08:54:04;;;;;;;64.80;22.77;;;;;;;11.56;100.00;99066.34;10405409;28;20404;-73
2023/10/21 08:59:04;;;;;;;58.22;23.27;;;;;;;11.80;100.00;99075.25;10412991;28;20052;-74
2023/10/21 09:04:05;;;;;;;56.65;22.30;;;;;;;12.02;100.00;99077.28;10422669;28;20529;-72
2023/10/21 09:09:05;;;;;;;58.50;24.05;;;;;;;12.30;100.00;99083.59;10423440;28;20520;-69
2023/10/21 09:14:06;;;;;;;53.05;21.45;;;;;;;12.48;100.00;99092.03;10401814;28;20045;-74
2023/10/21 09:19:07;;;;;;;51.40;21.67;;;;;;;12.63;100.00;99094.47;10422171;28;20413;-73
2023/10/21 09:24:10;;;;;;;48.63;20.08;;;;;;;12.83;100.00;99101.44;10421662;28;20116;-73
2023/10/21 09:29:12;;;;;;;43.55;20.08;;;;;;;12.98;100.00;99105.78;10422757;28;20040;-74
2023/10/21 09:34:25;;;;;;;44.70;20.55;;;;;;;13.17;100.00;99118.56;10405118;28;20045;-73
2023/10/21 09:39:28;;;;;;;39.50;19.77;;;;;;;13.20;100.00;99104.13;10419950;28;20087;-74
2023/10/21 09:44:33;;;;;;;37.50;18.30;;;;;;;13.45;100.00;99138.63;10423352;28;20049;-74
2023/10/21 09:49:38;;;;;;;32.80;18.50;;;;;;;13.59;100.00;99113.69;10418906;28;20064;-74
2023/10/21 09:55:03;;;;;;;29.77;15.38;;;;;;;14.00;100.00;99152.09;10422681;28;20041;-74
2023/10/21 10:00:08;;;;;;;32.97;13.40;;;;;;;14.09;100.00;99152.94;10419756;28;20052;-75
2023/10/21 10:05:08;;;;;;;26.52;12.38;;;;;;;14.16;100.00;99162.72;10419039;28;20037;-75
2023/10/21 10:10:12;;;;;;;21.67;12.02;;;;;;;14.55;100.00;99172.94;10415181;28;20044;-75
2023/10/21 10:15:29;;;;;;;21.52;9.95;;;;;;;14.58;100.00;99172.34;10418156;28;20065;-76
2023/10/21 10:20:30;;;;;;;21.00;9.05;;;;;;;14.55;100.00;99181.25;10431955;28;20041;-75
2023/10/21 10:25:42;;;;;;;18.08;8.23;;;;;;;14.42;100.00;99191.31;10419819;28;20434;-74
2023/10/21 10:30:44;;;;;;;12.63;7.50;;;;;;;14.30;100.00;99186.41;10420016;28;20037;-76
2023/10/21 10:35:47;;;;;;;12.90;7.43;;;;;;;14.21;100.00;99182.78;10418599;28;20038;-77
2023/10/21 10:40:48;;;;;;;12.63;7.07;;;;;;;14.09;100.00;99193.63;10401306;28;20041;-77
2023/10/21 10:45:49;;;;;;;14.88;7.65;;;;;;;13.86;100.00;99193.69;10399284;28;20049;-76
2023/10/21 10:50:51;;;;;;;7.20;4.03;;;;;;;13.76;100.00;99212.50;10429777;28;20041;-76
2023/10/21 10:55:54;;;;;;;4.28;2.20;;;;;;;13.58;100.00;99203.28;10399449;28;20619;-75
2023/10/21 11:00:55;;;;;;;5.07;2.13;;;;;;;13.58;100.00;99211.56;10414988;28;20648;-74
2023/10/21 11:05:56;;;;;;;3.13;2.20;;;;;;;14.07;100.00;99212.50;10406735;28;20057;-77
2023/10/21 11:11:04;;;;;;;2.50;1.77;;;;;;;14.52;100.00;99226.19;10412160;28;20093;-74
2023/10/21 11:16:05;;;;;;;3.67;1.27;;;;;;;14.46;100.00;99255.19;10429003;28;20068;-73
2023/10/21 11:21:06;;;;;;;3.47;0.90;;;;;;;14.25;100.00;99269.56;10431317;28;20038;-74
2023/10/21 11:26:09;;;;;;;2.40;0.60;;;;;;;14.31;100.00;99273.03;10416402;28;20041;-76
2023/10/21 11:31:09;;;;;;;0.85;0.60;;;;;;;14.66;100.00;99273.22;10398636;28;20041;-74
2023/10/21 11:36:12;;;;;;;1.30;0.43;;;;;;;14.46;100.00;99283.66;10415153;28;20052;-75
2023/10/21 11:41:14;;;;;;;2.38;0.77;;;;;;;14.94;100.00;99284.84;10413848;28;20045;-76
2023/10/21 11:46:16;;;;;;;0.77;0.60;;;;;;;15.72;100.00;99282.16;10412944;28;20409;-76
2023/10/21 11:51:16;;;;;;;0.40;0.40;;;;;;;15.82;100.00;99292.13;10416572;28;20049;-75
2023/10/21 12:38:22;;;;;;;0.60;0.40;;;;;;;14.02;100.00;99384.22;10405331;28;20052;-73
2023/10/21 12:43:24;;;;;;;0.77;0.43;;;;;;;14.12;100.00;99378.44;10397986;28;20041;-75
2023/10/21 12:48:25;;;;;;;3.78;0.90;;;;;;;14.51;100.00;99385.16;10397577;28;20037;-76
2023/10/21 12:53:26;;;;;;;1.48;0.85;;;;;;;14.54;100.00;99396.44;10404958;28;20043;-76
2023/10/21 12:58:26;;;;;;;3.22;0.40;;;;;;;14.77;100.00;99384.53;10405002;28;20038;-73
2023/10/21 13:03:27;;;;;;;1.83;0.32;;;;;;;16.50;100.00;99383.16;10412195;28;20112;-74
2023/10/21 13:08:27;;;;;;;2.85;0.63;;;;;;;17.62;100.00;99346.81;10414371;28;20087;-75
2023/10/21 13:13:28;;;;;;;0.95;0.40;;;;;;;17.30;100.00;99376.94;10414990;28;20041;-75
2023/10/21 13:18:28;;;;;;;5.10;1.40;;;;;;;17.49;100.00;99373.75;10420217;28;20471;-77
2023/10/21 13:23:29;;;;;;;5.90;0.73;;;;;;;16.94;100.00;99344.91;10425631;28;20044;-75
2023/10/21 13:28:29;;;;;;;0.38;0.28;;;;;;;17.54;100.00;99387.44;10433392;28;20080;-74
2023/10/21 13:33:29;;;;;;;1.95;0.40;;;;;;;17.00;100.00;99393.63;10427653;28;20029;-73
2023/10/21 13:38:30;;;;;;;1.58;0.40;;;;;;;17.12;100.00;99404.84;10431825;28;20049;-77
2023/10/21 13:43:31;;;;;;;1.58;0.50;;;;;;;18.33;100.00;99391.28;10433105;28;20039;-76
2023/10/21 13:48:34;;;;;;;2.75;0.45;;;;;;;18.43;100.00;99394.78;10426918;28;20050;-76
2023/10/21 13:53:35;;;;;;;2.22;0.40;;;;;;;18.55;100.00;99392.03;10437606;28;20056;-79
2023/10/21 13:58:35;;;;;;;6.05;1.05;;;;;;;18.05;100.00;99393.81;10438920;28;20049;-77
2023/10/21 14:03:36;;;;;;;2.45;0.68;;;;;;;17.18;100.00;99415.78;10435126;28;20091;-75
2023/10/21 14:08:36;;;;;;;1.65;0.80;;;;;;;17.14;100.00;99438.72;10432079;28;20076;-75
2023/10/21 14:13:37;;;;;;;1.30;0.68;;;;;;;16.81;100.00;99421.03;10425487;28;20033;-76
2023/10/21 14:18:41;;;;;;;1.77;0.70;;;;;;;15.93;100.00;99432.16;10420059;28;20037;-76
2023/10/21 14:23:42;;;;;;;3.88;0.70;;;;;;;16.09;100.00;99426.16;10421148;28;20054;-75
2023/10/21 14:28:43;;;;;;;0.50;0.40;;;;;;;16.42;100.00;99432.00;10419239;28;20413;-75
2023/10/21 14:33:43;;;;;;;1.67;0.55;;;;;;;17.35;100.00;99412.94;10420555;28;20046;-73
2023/10/21 14:38:46;;;;;;;2.92;0.68;;;;;;;17.67;100.00;99424.53;10419164;28;20489;-76
2023/10/21 14:43:47;;;;;;;3.50;0.63;;;;;;;17.64;100.00;99430.78;10419363;28;20033;-75
2023/10/21 14:48:47;;;;;;;1.55;0.63;;;;;;;17.42;100.00;99435.47;10418063;28;20046;-75
2023/10/21 14:53:48;;;;;;;4.38;0.75;;;;;;;17.33;100.00;99435.50;10418707;28;20050;-76
2023/10/21 14:58:49;;;;;;;2.78;0.70;;;;;;;17.10;100.00;99445.28;10419984;28;20045;-75
2023/10/21 15:03:49;;;;;;;2.45;0.80;;;;;;;16.33;100.00;99459.78;10419000;28;20049;-74
2023/10/21 15:08:49;;;;;;;6.22;1.10;;;;;;;15.45;100.00;99466.31;10418406;28;20034;-75
2023/10/21 15:13:50;;;;;;;1.27;0.80;;;;;;;14.81;100.00;99463.91;10418312;28;20048;-74
2023/10/21 15:18:50;;;;;;;3.75;1.17;;;;;;;14.30;100.00;99466.00;10418832;28;20045;-67
2023/10/21 15:23:51;;;;;;;3.05;1.45;;;;;;;13.88;100.00;99470.81;10417929;28;20056;-73
2023/10/21 15:28:51;;;;;;;3.95;1.00;;;;;;;13.44;100.00;99460.44;10417150;28;20034;-73
2023/10/21 15:33:56;;;;;;;3.05;1.00;;;;;;;13.29;100.00;99483.66;10418065;28;20095;-74
2023/10/21 15:38:56;;;;;;;4.50;1.52;;;;;;;13.13;100.00;99491.41;10417265;28;20041;-74
2023/10/21 15:43:59;;;;;;;3.78;1.33;;;;;;;13.04;100.00;99496.84;10423112;28;20139;-73
2023/10/21 15:48:59;;;;;;;3.17;1.10;;;;;;;12.92;100.00;99513.09;10418703;28;20042;-73
2023/10/21 15:53:59;;;;;;;1.98;0.60;;;;;;;12.82;100.00;99516.03;10427495;28;20038;-75
2023/10/21 15:59:00;;;;;;;3.60;0.90;;;;;;;12.72;100.00;99517.00;10436567;28;20048;-75
2023/10/21 16:04:01;;;;;;;10.63;1.55;;;;;;;12.38;100.00;99496.03;10423972;28;20068;-74
2023/10/21 16:09:01;;;;;;;2.28;0.70;;;;;;;12.52;100.00;99540.22;10417491;28;20038;-74
2023/10/21 16:14:02;;;;;;;2.10;1.00;;;;;;;12.51;100.00;99546.88;10429067;28;20037;-74
2023/10/21 16:19:03;;;;;;;3.67;1.00;;;;;;;12.48;100.00;99553.81;10427080;28;20579;-74
2023/10/21 16:24:03;;;;;;;2.35;0.90;;;;;;;12.47;100.00;99552.19;10426663;28;20129;-75
2023/10/21 16:29:06;;;;;;;2.17;0.93;;;;;;;12.47;100.00;99559.66;10424520;28;20490;-74
2023/10/21 16:34:07;;;;;;;2.53;0.88;;;;;;;12.27;100.00;99547.78;10431147;28;20103;-74
2023/10/21 16:39:09;;;;;;;2.03;0.70;;;;;;;12.26;100.00;99576.50;10420772;28;20041;-75
2023/10/21 16:44:10;;;;;;;2.95;0.95;;;;;;;12.23;100.00;99576.25;10427218;28;20048;-76
2023/10/21 16:49:10;;;;;;;2.78;0.75;;;;;;;12.16;100.00;99581.34;10420764;28;20044;-75
2023/10/21 16:54:11;;;;;;;4.18;0.70;;;;;;;12.15;100.00;99583.25;10425420;28;20087;-75
2023/10/21 16:59:11;;;;;;;4.30;0.77;;;;;;;12.19;100.00;99587.06;10426322;28;20044;-68
2023/10/21 17:04:12;;;;;;;5.50;1.38;;;;;;;11.97;100.00;99548.19;10429418;28;20056;-75
2023/10/21 17:09:13;;;;;;;4.82;0.80;;;;;;;12.23;100.00;99588.13;10424603;28;20038;-75
2023/10/21 17:14:13;;;;;;;3.80;0.82;;;;;;;12.14;100.00;99578.88;10430603;28;20041;-74
2023/10/21 17:19:14;;;;;;;7.18;1.00;;;;;;;12.22;100.00;99592.00;10434068;28;20037;-75
2023/10/21 17:24:14;;;;;;;3.65;1.05;;;;;;;12.19;100.00;99595.34;10432029;28;20493;-75
2023/10/21 17:29:15;;;;;;;6.13;0.80;;;;;;;12.20;100.00;99599.75;10438212;28;20033;-74
2023/10/21 17:34:15;;;;;;;4.75;1.52;;;;;;;12.10;100.00;99592.44;10435663;28;20037;-75
2023/10/21 17:39:16;;;;;;;3.50;0.95;;;;;;;12.14;100.00;99605.66;10439500;28;20037;-75
2023/10/21 17:44:16;;;;;;;5.70;1.23;;;;;;;12.04;100.00;99596.38;10436217;28;20041;-75
2023/10/21 17:49:17;;;;;;;4.70;1.08;;;;;;;12.16;100.00;99615.28;10424960;28;20037;-74
2023/10/21 17:54:18;;;;;;;7.07;1.15;;;;;;;12.16;100.00;99612.50;10438862;28;20040;-72
2023/10/21 17:59:18;;;;;;;6.90;0.93;;;;;;;12.22;100.00;99614.09;10430477;28;20042;-74
2023/10/21 18:04:18;;;;;;;6.00;1.02;;;;;;;12.24;100.00;99611.84;10434678;28;20037;-75
2023/10/21 18:09:19;;;;;;;5.38;1.52;;;;;;;12.26;100.00;99617.09;10431183;28;20044;-73
2023/10/21 18:14:19;;;;;;;4.35;0.98;;;;;;;12.24;100.00;99616.56;10436211;28;20045;-76
2023/10/21 18:19:20;;;;;;;1.90;0.90;;;;;;;12.25;100.00;99607.97;10432117;28;20485;-76
2023/10/21 18:24:20;;;;;;;7.38;1.05;;;;;;;12.29;100.00;99620.03;10419046;28;20444;-74
2023/10/21 18:29:21;;;;;;;4.35;0.90;;;;;;;12.24;100.00;99613.78;10434028;28;20045;-73
2023/10/21 18:34:21;;;;;;;4.05;1.20;;;;;;;12.21;100.00;99628.16;10421481;28;20385;-74
2023/10/21 18:39:22;;;;;;;4.65;1.00;;;;;;;12.27;100.00;99610.44;10422000;28;20132;-76
2023/10/21 18:44:22;;;;;;;4.43;1.10;;;;;;;12.29;100.00;99625.56;10419700;28;20052;-74
2023/10/21 18:49:23;;;;;;;6.03;1.00;;;;;;;12.34;100.00;99621.09;10431245;28;20057;-74
2023/10/21 18:54:23;;;;;;;6.35;1.00;;;;;;;12.35;100.00;99622.75;10430565;28;20124;-72
2023/10/21 18:59:23;;;;;;;3.60;1.05;;;;;;;12.41;100.00;99633.41;10437479;28;20100;-74
2023/10/21 19:04:24;;;;;;;5.05;1.15;;;;;;;12.50;100.00;99631.63;10425639;28;20080;-74
2023/10/21 19:09:25;;;;;;;2.83;0.85;;;;;;;12.55;100.00;99624.38;10428999;28;20098;-74
2023/10/21 19:14:26;;;;;;;4.05;0.77;;;;;;;12.70;100.00;99635.22;10426708;28;20053;-75
2023/10/21 19:19:27;;;;;;;4.30;0.93;;;;;;;12.78;100.00;99639.25;10432037;28;20034;-75
2023/10/21 19:24:27;;;;;;;4.65;1.40;;;;;;;12.85;100.00;99642.47;10428086;28;20046;-75
2023/10/21 19:29:29;;;;;;;6.03;1.10;;;;;;;12.79;100.00;99654.69;10429600;28;20037;-74
2023/10/21 19:34:29;;;;;;;3.33;1.10;;;;;;;12.76;100.00;99666.34;10439285;28;20448;-73
2023/10/21 19:39:30;;;;;;;7.47;1.30;;;;;;;12.82;100.00;99670.69;10426530;28;20064;-73
2023/10/21 19:44:30;;;;;;;7.70;1.80;;;;;;;12.83;100.00;99666.78;10429294;28;20056;-77
2023/10/21 19:49:31;;;;;;;3.75;1.00;;;;;;;12.84;100.00;99671.22;10430860;28;20038;-74
2023/10/21 19:54:32;;;;;;;5.30;0.75;;;;;;;12.10;100.00;99564.03;10426819;28;20405;-73
2023/10/21 19:59:32;;;;;;;8.48;1.33;;;;;;;12.74;100.00;99677.69;10434745;28;20135;-74
2023/10/21 20:04:35;;;;;;;4.85;0.90;;;;;;;12.61;100.00;99679.25;10430876;28;20052;-73
2023/10/21 20:09:35;;;;;;;10.30;1.05;;;;;;;12.56;100.00;99672.97;10425323;28;20080;-73
2023/10/21 20:14:36;;;;;;;4.47;0.90;;;;;;;12.55;100.00;99672.16;10416123;28;20037;-73
2023/10/21 20:19:36;;;;;;;4.80;0.82;;;;;;;12.58;100.00;99671.56;10411606;28;20045;-74
2023/10/21 20:24:37;;;;;;;2.72;0.85;;;;;;;12.55;100.00;99658.34;10415315;28;20274;-75
2023/10/21 20:29:38;;;;;;;7.22;1.17;;;;;;;12.50;100.00;99663.94;10432753;28;20088;-75
2023/10/21 20:34:39;;;;;;;5.18;1.63;;;;;;;12.44;100.00;99651.31;10423151;28;20041;-74
2023/10/21 20:39:39;;;;;;;6.88;0.90;;;;;;;12.35;100.00;99655.88;10428220;28;20044;-75
2023/10/21 20:44:40;;;;;;;5.05;1.00;;;;;;;12.32;100.00;99655.34;10439855;28;20065;-75
2023/10/21 20:49:40;;;;;;;4.50;0.90;;;;;;;12.26;100.00;99639.97;10428904;28;20041;-74
2023/10/21 20:54:41;;;;;;;3.83;1.13;;;;;;;12.25;100.00;99651.28;10442357;28;20044;-74
2023/10/21 20:59:41;;;;;;;5.03;1.30;;;;;;;12.39;100.00;99654.16;10434339;28;20041;-73
2023/10/21 21:04:42;;;;;;;8.18;3.35;;;;;;;12.38;100.00;99655.25;10413363;28;20057;-74
2023/10/21 21:09:42;;;;;;;9.90;6.03;;;;;;;12.36;100.00;99652.81;10428684;28;20091;-74
2023/10/21 21:14:43;;;;;;;14.57;6.38;;;;;;;12.32;100.00;99662.81;10426303;28;20041;-73
2023/10/21 21:19:43;;;;;;;14.65;7.10;;;;;;;11.98;100.00;99611.34;10431211;28;20045;-70
2023/10/21 21:24:44;;;;;;;9.57;4.82;;;;;;;12.17;100.00;99666.56;10429951;28;20933;-74
2023/10/21 21:29:44;;;;;;;12.35;4.95;;;;;;;12.14;100.00;99667.16;10420580;28;20045;-72
2023/10/21 21:34:45;;;;;;;7.90;3.30;;;;;;;12.10;100.00;99660.59;10403603;28;20049;-67
2023/10/21 21:39:45;;;;;;;8.77;3.10;;;;;;;12.05;100.00;99668.91;10400654;28;20049;-74
2023/10/21 21:44:46;;;;;;;7.90;2.63;;;;;;;12.02;100.00;99675.84;10398051;28;20494;-74
2023/10/21 21:49:46;;;;;;;5.20;1.80;;;;;;;12.02;100.00;99667.56;10409459;28;20037;-73
2023/10/21 21:54:47;;;;;;;3.45;1.55;;;;;;;12.05;100.00;99668.91;10423389;28;20320;-75
2023/10/21 21:59:48;;;;;;;3.55;1.42;;;;;;;12.05;100.00;99669.75;10428263;28;20037;-75
2023/10/21 22:04:48;;;;;;;3.47;0.88;;;;;;;12.10;100.00;99668.88;10414833;28;20038;-75
2023/10/21 22:09:49;;;;;;;4.88;1.00;;;;;;;12.07;100.00;99673.03;10412630;28;20061;-78
2023/10/21 22:14:49;;;;;;;4.85;1.08;;;;;;;12.07;100.00;99672.19;10430393;28;20081;-75
2023/10/21 22:19:50;;;;;;;3.70;0.90;;;;;;;12.05;100.00;99674.44;10412392;28;20041;-73
2023/10/21 22:24:51;;;;;;;4.75;0.98;;;;;;;12.04;100.00;99675.56;10410719;28;20037;-74
2023/10/21 22:29:51;;;;;;;5.22;1.40;;;;;;;12.07;100.00;99672.19;10407596;28;20081;-65
2023/10/21 22:34:51;;;;;;;4.00;1.00;;;;;;;12.07;100.00;99672.19;10421483;28;20919;-73
2023/10/21 22:39:52;;;;;;;7.95;1.35;;;;;;;12.05;100.00;99671.66;10410922;28;20619;-74
2023/10/21 22:44:53;;;;;;;2.45;1.15;;;;;;;12.06;100.00;99674.13;10415822;28;20472;-74
2023/10/21 22:49:53;;;;;;;4.25;0.88;;;;;;;12.07;100.00;99672.19;10420822;28;20040;-73
2023/10/21 22:54:54;;;;;;;7.85;1.00;;;;;;;12.12;100.00;99680.44;10407106;28;20034;-74
2023/10/21 22:59:57;;;;;;;3.88;0.90;;;;;;;12.10;100.00;99674.38;10416606;28;20041;-77
2023/10/21 23:04:58;;;;;;;2.75;0.73;;;;;;;12.15;100.00;99670.72;10411115;28;20061;-77
2023/10/21 23:09:59;;;;;;;3.97;1.10;;;;;;;12.14;100.00;99675.44;10413478;28;20034;-74
2023/10/21 23:14:59;;;;;;;5.57;0.80;;;;;;;12.14;100.00;99672.69;10415403;28;20048;-73
2023/10/21 23:20:00;;;;;;;6.40;0.85;;;;;;;12.17;100.00;99665.75;10416856;28;20033;-74
2023/10/21 23:25:00;;;;;;;4.80;1.00;;;;;;;12.23;100.00;99679.19;10416395;28;20405;-73
2023/10/21 23:30:03;;;;;;;4.72;0.68;;;;;;;12.28;100.00;99670.84;10398717;28;20486;-72